createdAt,value
2019-03-17T00:00:22.419Z,992.93
2019-03-17T00:01:22.437Z,992.91
2019-03-17T00:03:15.439Z,992.91
2019-03-17T00:04:15.479Z,992.92
2019-03-17T00:06:08.481Z,992.80
2019-03-17T00:07:08.527Z,992.79
2019-03-17T00:09:01.526Z,992.76
2019-03-17T00:10:01.562Z,992.78
2019-03-17T00:11:54.556Z,992.69
2019-03-17T00:12:54.597Z,992.70
2019-03-17T00:14:47.630Z,992.66
2019-03-17T00:15:47.640Z,992.60
2019-03-17T00:17:41.994Z,992.65
2019-03-17T00:18:40.674Z,992.56
2019-03-17T00:20:33.673Z,992.48
2019-03-17T00:21:33.730Z,992.48
2019-03-17T00:23:27.242Z,992.47
2019-03-17T00:24:27.279Z,992.42
2019-03-17T00:26:20.300Z,992.45
2019-03-17T00:27:20.314Z,992.44
2019-03-17T00:29:13.314Z,992.44
2019-03-17T00:30:13.356Z,992.33
2019-03-17T00:32:06.331Z,992.30
2019-03-17T00:33:06.390Z,992.32
2019-03-17T00:34:59.396Z,992.33
2019-03-17T00:35:59.434Z,992.37
2019-03-17T00:37:52.422Z,992.28
2019-03-17T00:38:52.477Z,992.33
2019-03-17T00:40:45.467Z,992.27
2019-03-17T00:41:45.551Z,992.40
2019-03-17T00:43:38.505Z,992.29
2019-03-17T00:44:38.550Z,992.37
2019-03-17T00:46:31.530Z,992.31
2019-03-17T00:47:31.586Z,992.29
2019-03-17T00:49:24.596Z,992.24
2019-03-17T00:50:24.631Z,992.20
2019-03-17T00:52:17.610Z,992.18
2019-03-17T00:53:17.672Z,992.17
2019-03-17T00:55:10.679Z,992.18
2019-03-17T00:56:10.718Z,992.17
2019-03-17T00:58:03.702Z,992.08
2019-03-17T00:59:03.767Z,992.08
2019-03-17T01:00:56.754Z,992.09
2019-03-17T01:01:56.802Z,992.07
2019-03-17T01:03:49.811Z,992.04
2019-03-17T01:04:56.158Z,991.97
2019-03-17T01:06:42.837Z,991.89
2019-03-17T01:07:42.886Z,991.99
2019-03-17T01:09:35.878Z,991.96
2019-03-17T01:10:35.936Z,991.86
2019-03-17T01:12:28.932Z,991.82
2019-03-17T01:13:28.972Z,991.77
2019-03-17T01:15:21.977Z,991.70
2019-03-17T01:16:22.014Z,991.65
2019-03-17T01:18:15.014Z,991.65
2019-03-17T01:19:15.069Z,991.51
2019-03-17T01:21:08.082Z,991.58
2019-03-17T01:22:08.120Z,991.55
2019-03-17T01:24:01.090Z,991.51
2019-03-17T01:25:01.148Z,991.51
2019-03-17T01:26:54.159Z,991.45
2019-03-17T01:27:54.196Z,991.56
2019-03-17T01:29:47.198Z,991.50
2019-03-17T01:30:47.244Z,991.55
2019-03-17T01:32:40.261Z,991.46
2019-03-17T01:33:40.289Z,991.56
2019-03-17T01:35:33.283Z,991.56
2019-03-17T01:36:33.329Z,991.56
2019-03-17T01:38:26.329Z,991.49
2019-03-17T01:39:26.367Z,991.65
2019-03-17T01:41:19.417Z,991.55
2019-03-17T01:42:19.410Z,991.61
2019-03-17T01:44:12.390Z,991.63
2019-03-17T01:45:12.439Z,991.50
2019-03-17T01:47:05.450Z,991.50
2019-03-17T01:48:05.485Z,991.49
2019-03-17T01:49:58.468Z,991.54
2019-03-17T01:50:58.571Z,991.58
2019-03-17T01:52:51.523Z,991.47
2019-03-17T01:53:51.562Z,991.49
2019-03-17T01:55:44.601Z,991.48
2019-03-17T01:56:44.616Z,991.44
2019-03-17T01:58:37.595Z,991.45
2019-03-17T01:59:37.642Z,991.46
2019-03-17T02:01:31.148Z,991.42
2019-03-17T02:02:31.184Z,991.39
2019-03-17T02:04:24.187Z,991.27
2019-03-17T02:05:24.227Z,991.22
2019-03-17T02:07:17.323Z,991.23
2019-03-17T02:08:17.281Z,991.14
2019-03-17T02:10:10.280Z,991.16
2019-03-17T02:11:10.320Z,991.21
2019-03-17T02:13:03.311Z,991.11
2019-03-17T02:14:03.366Z,991.13
2019-03-17T02:15:56.379Z,991.16
2019-03-17T02:16:56.408Z,991.11
2019-03-17T02:18:49.391Z,991.13
2019-03-17T02:19:49.486Z,991.17
2019-03-17T02:21:42.449Z,991.11
2019-03-17T02:22:42.485Z,991.14
2019-03-17T02:24:35.497Z,991.13
2019-03-17T02:25:35.533Z,990.95
2019-03-17T02:27:28.523Z,990.96
2019-03-17T02:28:28.580Z,990.86
2019-03-17T02:30:21.619Z,990.71
2019-03-17T02:31:21.637Z,990.82
2019-03-17T02:33:14.628Z,990.71
2019-03-17T02:34:14.662Z,990.77
2019-03-17T02:36:07.774Z,990.68
2019-03-17T02:37:07.709Z,990.70
2019-03-17T02:39:00.699Z,990.63
2019-03-17T02:40:00.745Z,990.70
2019-03-17T02:41:53.789Z,990.56
2019-03-17T02:42:53.787Z,990.67
2019-03-17T02:44:46.786Z,990.67
2019-03-17T02:45:46.822Z,990.65
2019-03-17T02:47:39.845Z,990.62
2019-03-17T02:48:39.860Z,990.61
2019-03-17T02:50:32.862Z,990.66
2019-03-17T02:51:32.902Z,990.66
2019-03-17T02:53:25.902Z,990.68
2019-03-17T02:54:25.948Z,990.64
2019-03-17T02:56:18.982Z,990.63
2019-03-17T02:57:18.980Z,990.74
2019-03-17T02:59:11.962Z,990.67
2019-03-17T03:00:12.019Z,990.64
2019-03-17T03:02:05.550Z,990.73
2019-03-17T03:03:05.584Z,990.59
2019-03-17T03:04:58.587Z,990.65
2019-03-17T03:05:58.629Z,990.59
2019-03-17T03:07:51.631Z,990.56
2019-03-17T03:08:51.694Z,990.53
2019-03-17T03:10:44.677Z,990.51
2019-03-17T03:11:44.717Z,990.57
2019-03-17T03:13:37.746Z,990.50
2019-03-17T03:14:37.760Z,990.52
2019-03-17T03:16:30.766Z,990.60
2019-03-17T03:17:30.806Z,990.55
2019-03-17T03:19:23.820Z,990.39
2019-03-17T03:20:23.848Z,990.49
2019-03-17T03:22:16.849Z,990.42
2019-03-17T03:23:16.887Z,990.41
2019-03-17T03:25:09.904Z,990.47
2019-03-17T03:26:09.956Z,990.46
2019-03-17T03:28:02.956Z,990.38
2019-03-17T03:29:02.997Z,990.39
2019-03-17T03:30:56.000Z,990.43
2019-03-17T03:31:56.043Z,990.46
2019-03-17T03:33:49.033Z,990.20
2019-03-17T03:34:49.084Z,990.27
2019-03-17T03:36:42.136Z,990.22
2019-03-17T03:37:42.122Z,990.18
2019-03-17T03:39:35.122Z,990.31
2019-03-17T03:40:35.159Z,990.20
2019-03-17T03:42:28.170Z,990.24
2019-03-17T03:43:28.202Z,990.20
2019-03-17T03:45:21.185Z,990.26
2019-03-17T03:46:21.244Z,990.22
2019-03-17T03:48:14.243Z,990.38
2019-03-17T03:49:14.296Z,990.28
2019-03-17T03:51:07.273Z,990.25
2019-03-17T03:52:07.330Z,990.32
2019-03-17T03:54:00.335Z,990.27
2019-03-17T03:55:00.468Z,990.26
2019-03-17T03:56:53.350Z,990.27
2019-03-17T03:57:53.406Z,990.14
2019-03-17T03:59:46.413Z,990.24
2019-03-17T04:00:46.507Z,990.26
2019-03-17T04:02:39.447Z,990.25
2019-03-17T04:03:39.483Z,990.29
2019-03-17T04:05:33.029Z,990.17
2019-03-17T04:06:32.538Z,990.23
2019-03-17T04:08:25.551Z,990.23
2019-03-17T04:09:25.611Z,990.21
2019-03-17T04:11:18.571Z,990.16
2019-03-17T04:12:18.628Z,990.21
2019-03-17T04:14:11.619Z,990.23
2019-03-17T04:15:11.668Z,990.16
2019-03-17T04:17:04.649Z,990.17
2019-03-17T04:18:04.702Z,990.12
2019-03-17T04:19:57.705Z,990.08
2019-03-17T04:20:57.740Z,990.14
2019-03-17T04:22:50.741Z,990.15
2019-03-17T04:23:50.785Z,990.13
2019-03-17T04:25:43.852Z,990.17
2019-03-17T04:26:43.846Z,990.11
2019-03-17T04:28:36.845Z,990.19
2019-03-17T04:29:36.883Z,990.12
2019-03-17T04:31:29.867Z,990.10
2019-03-17T04:32:29.925Z,990.06
2019-03-17T04:34:22.931Z,990.14
2019-03-17T04:35:22.971Z,990.09
2019-03-17T04:37:15.984Z,990.12
2019-03-17T04:38:16.021Z,990.09
2019-03-17T04:40:09.025Z,990.12
2019-03-17T04:41:09.077Z,990.12
2019-03-17T04:43:02.081Z,990.21
2019-03-17T04:44:02.107Z,990.16
2019-03-17T04:45:55.094Z,990.24
2019-03-17T04:46:55.152Z,990.22
2019-03-17T04:48:48.180Z,990.17
2019-03-17T04:49:48.236Z,990.27
2019-03-17T04:51:41.175Z,990.20
2019-03-17T04:52:41.266Z,990.25
2019-03-17T04:54:34.246Z,990.39
2019-03-17T04:55:34.285Z,990.32
2019-03-17T04:57:27.275Z,990.35
2019-03-17T04:58:27.320Z,990.25
2019-03-17T05:00:20.339Z,990.31
2019-03-17T05:01:20.372Z,990.33
2019-03-17T05:03:13.353Z,990.37
2019-03-17T05:04:13.429Z,990.37
2019-03-17T05:06:06.404Z,990.32
2019-03-17T05:07:06.448Z,990.28
2019-03-17T05:08:59.432Z,990.43
2019-03-17T05:09:59.484Z,990.39
2019-03-17T05:11:52.550Z,990.32
2019-03-17T05:12:52.585Z,990.40
2019-03-17T05:14:45.575Z,990.43
2019-03-17T05:15:45.625Z,990.36
2019-03-17T05:17:38.638Z,990.34
2019-03-17T05:18:38.669Z,990.35
2019-03-17T05:20:31.654Z,990.36
2019-03-17T05:21:31.727Z,990.36
2019-03-17T05:23:24.709Z,990.42
2019-03-17T05:24:24.749Z,990.38
2019-03-17T05:26:17.748Z,990.46
2019-03-17T05:27:17.782Z,990.50
2019-03-17T05:29:10.781Z,990.45
2019-03-17T05:30:10.818Z,990.50
2019-03-17T05:32:03.855Z,990.50
2019-03-17T05:33:03.893Z,990.45
2019-03-17T05:34:56.889Z,990.37
2019-03-17T05:35:56.928Z,990.30
2019-03-17T05:37:49.905Z,990.43
2019-03-17T05:38:49.973Z,990.44
2019-03-17T05:40:42.971Z,990.28
2019-03-17T05:41:43.014Z,990.25
2019-03-17T05:43:36.016Z,990.21
2019-03-17T05:44:36.047Z,990.32
2019-03-17T05:46:29.047Z,990.40
2019-03-17T05:47:29.091Z,990.29
2019-03-17T05:49:22.088Z,990.28
2019-03-17T05:50:22.124Z,990.32
2019-03-17T05:52:15.134Z,990.37
2019-03-17T05:53:15.158Z,990.38
2019-03-17T05:55:08.150Z,990.42
2019-03-17T05:56:08.194Z,990.36
2019-03-17T05:58:01.186Z,990.37
2019-03-17T05:59:01.247Z,990.35
2019-03-17T06:00:54.226Z,990.35
2019-03-17T06:01:54.264Z,990.46
2019-03-17T06:03:47.243Z,990.47
2019-03-17T06:04:47.298Z,990.49
2019-03-17T06:06:40.300Z,990.46
2019-03-17T06:07:40.345Z,990.53
2019-03-17T06:09:33.345Z,990.51
2019-03-17T06:10:33.373Z,990.51
2019-03-17T06:12:26.362Z,990.54
2019-03-17T06:13:26.412Z,990.68
2019-03-17T06:15:19.440Z,990.70
2019-03-17T06:16:19.446Z,990.70
2019-03-17T06:18:12.447Z,990.67
2019-03-17T06:19:12.481Z,990.75
2019-03-17T06:21:05.507Z,990.73
2019-03-17T06:22:05.541Z,990.69
2019-03-17T06:23:58.540Z,990.67
2019-03-17T06:24:58.579Z,990.63
2019-03-17T06:26:51.579Z,990.64
2019-03-17T06:27:51.646Z,990.63
2019-03-17T06:29:44.639Z,990.78
2019-03-17T06:30:44.652Z,990.70
2019-03-17T06:32:37.648Z,990.71
2019-03-17T06:33:37.695Z,990.77
2019-03-17T06:35:30.690Z,990.78
2019-03-17T06:36:30.721Z,990.75
2019-03-17T06:38:23.724Z,990.79
2019-03-17T06:39:23.766Z,990.77
2019-03-17T06:41:16.743Z,990.82
2019-03-17T06:42:16.808Z,990.76
2019-03-17T06:44:09.805Z,990.81
2019-03-17T06:45:09.842Z,990.73
2019-03-17T06:47:05.720Z,990.73
2019-03-17T06:48:02.889Z,990.84
2019-03-17T06:49:55.906Z,990.82
2019-03-17T06:50:55.923Z,990.78
2019-03-17T06:52:48.918Z,990.85
2019-03-17T06:53:56.376Z,990.79
2019-03-17T06:55:41.975Z,990.81
2019-03-17T06:56:42.014Z,990.82
2019-03-17T06:58:35.004Z,990.90
2019-03-17T06:59:35.046Z,990.90
2019-03-17T07:01:28.025Z,990.94
2019-03-17T07:02:28.079Z,990.94
2019-03-17T07:04:21.088Z,991.05
2019-03-17T07:05:21.119Z,991.09
2019-03-17T07:07:14.126Z,991.18
2019-03-17T07:08:14.153Z,991.31
2019-03-17T07:10:07.140Z,991.44
2019-03-17T07:11:07.196Z,991.41
2019-03-17T07:13:00.194Z,991.46
2019-03-17T07:14:00.253Z,991.55
2019-03-17T07:15:53.232Z,991.59
2019-03-17T07:16:53.268Z,991.59
2019-03-17T07:18:46.266Z,991.82
2019-03-17T07:19:46.311Z,991.82
2019-03-17T07:21:39.315Z,991.82
2019-03-17T07:22:39.353Z,991.98
2019-03-17T07:24:32.363Z,992.13
2019-03-17T07:25:32.401Z,992.36
2019-03-17T07:27:25.383Z,992.23
2019-03-17T07:28:25.430Z,992.26
2019-03-17T07:30:18.416Z,992.29
2019-03-17T07:31:18.464Z,992.33
2019-03-17T07:33:11.464Z,992.40
2019-03-17T07:34:11.503Z,992.41
2019-03-17T07:36:04.507Z,992.53
2019-03-17T07:37:04.543Z,992.61
2019-03-17T07:38:57.540Z,992.72
2019-03-17T07:39:57.585Z,992.77
2019-03-17T07:41:50.581Z,992.93
2019-03-17T07:42:50.635Z,992.96
2019-03-17T07:44:43.626Z,992.96
2019-03-17T07:45:43.669Z,992.97
2019-03-17T07:47:36.675Z,992.96
2019-03-17T07:48:36.711Z,992.99
2019-03-17T07:50:29.715Z,992.92
2019-03-17T07:51:29.749Z,992.92
2019-03-17T07:53:22.735Z,992.89
2019-03-17T07:54:22.789Z,992.91
2019-03-17T07:56:15.786Z,992.87
2019-03-17T07:57:15.834Z,992.85
2019-03-17T07:59:08.818Z,992.78
2019-03-17T08:00:08.987Z,992.78
2019-03-17T08:02:01.893Z,992.84
2019-03-17T08:03:01.909Z,992.87
2019-03-17T08:04:54.921Z,992.88
2019-03-17T08:05:54.946Z,992.83
2019-03-17T08:07:47.972Z,992.89
2019-03-17T08:08:48.078Z,992.93
2019-03-17T08:10:40.991Z,992.92
2019-03-17T08:11:41.046Z,992.88
2019-03-17T08:13:34.042Z,992.89
2019-03-17T08:14:34.081Z,992.96
2019-03-17T08:16:27.058Z,993.00
2019-03-17T08:17:27.126Z,993.03
2019-03-17T08:19:20.117Z,992.99
2019-03-17T08:20:20.161Z,993.01
2019-03-17T08:22:13.327Z,992.95
2019-03-17T08:23:13.376Z,992.95
2019-03-17T08:25:06.186Z,992.99
2019-03-17T08:26:06.263Z,992.99
2019-03-17T08:27:59.261Z,993.02
2019-03-17T08:28:59.290Z,993.01
2019-03-17T08:30:53.576Z,993.12
2019-03-17T08:31:52.325Z,993.18
2019-03-17T08:33:45.327Z,993.20
2019-03-17T08:34:45.359Z,993.22
2019-03-17T08:36:38.388Z,993.25
2019-03-17T08:37:38.473Z,993.31
2019-03-17T08:39:31.438Z,993.36
2019-03-17T08:40:31.462Z,993.43
2019-03-17T08:42:24.466Z,993.50
2019-03-17T08:43:24.534Z,993.51
2019-03-17T08:45:17.506Z,993.52
2019-03-17T08:46:17.559Z,993.53
2019-03-17T08:48:10.589Z,993.49
2019-03-17T08:49:10.604Z,993.57
2019-03-17T08:51:03.587Z,993.60
2019-03-17T08:52:03.644Z,993.64
2019-03-17T08:53:56.643Z,993.70
2019-03-17T08:54:56.679Z,993.70
2019-03-17T09:10:04.024Z,993.88
2019-03-17T09:11:04.045Z,993.91
2019-03-17T09:15:26.637Z,994.02
2019-03-17T09:16:26.675Z,993.99
2019-03-17T09:18:19.705Z,994.12
2019-03-17T09:19:19.728Z,994.10
2019-03-17T09:22:10.320Z,994.16
2019-03-17T09:23:10.367Z,994.16
2019-03-17T09:25:26.417Z,994.24
2019-03-17T09:26:26.448Z,994.19
2019-03-17T09:31:58.679Z,994.19
2019-03-17T09:32:58.774Z,994.20
2019-03-17T09:38:47.145Z,994.23
2019-03-17T09:39:41.893Z,994.23
2019-03-17T09:41:34.899Z,994.30
2019-03-17T09:42:34.932Z,994.25
2019-03-17T09:44:39.449Z,994.22
2019-03-17T09:45:39.487Z,994.26
2019-03-17T09:47:55.686Z,994.29
2019-03-17T09:48:55.735Z,994.28
2019-03-17T09:50:48.753Z,994.29
2019-03-17T09:51:48.773Z,994.30
2019-03-17T09:54:51.076Z,994.24
2019-03-17T09:55:51.135Z,994.21
2019-03-17T09:58:30.327Z,994.30
2019-03-17T09:59:30.360Z,994.34
2019-03-17T10:01:23.884Z,994.20
2019-03-17T10:02:23.916Z,994.28
2019-03-17T10:04:40.164Z,994.37
2019-03-17T10:05:40.278Z,994.35
2019-03-17T10:08:19.297Z,994.52
2019-03-17T10:09:19.346Z,994.48
2019-03-17T10:11:12.339Z,994.54
2019-03-17T10:12:12.389Z,994.61
2019-03-17T10:14:17.163Z,994.68
2019-03-17T10:15:17.203Z,994.55
2019-03-17T10:17:10.212Z,994.69
2019-03-17T10:18:10.239Z,994.72
2019-03-17T10:20:03.235Z,994.67
2019-03-17T10:21:03.273Z,994.64
2019-03-17T10:22:56.276Z,994.80
2019-03-17T10:23:56.311Z,994.83
2019-03-17T10:25:49.290Z,994.79
2019-03-17T10:26:49.352Z,994.83
2019-03-17T10:28:42.362Z,994.79
2019-03-17T10:29:42.392Z,994.81
2019-03-17T10:31:35.370Z,994.68
2019-03-17T10:32:35.426Z,994.57
2019-03-17T10:34:28.424Z,994.64
2019-03-17T10:35:28.460Z,994.65
2019-03-17T10:37:21.449Z,994.67
2019-03-17T10:38:21.503Z,994.68
2019-03-17T10:40:14.492Z,994.72
2019-03-17T10:41:14.529Z,994.72
2019-03-17T10:43:07.562Z,994.80
2019-03-17T10:44:07.567Z,994.76
2019-03-17T10:46:00.552Z,994.74
2019-03-17T10:47:00.609Z,994.72
2019-03-17T10:48:53.605Z,994.74
2019-03-17T10:49:53.643Z,994.76
2019-03-17T10:51:46.621Z,994.75
2019-03-17T10:52:46.681Z,994.74
2019-03-17T10:54:39.694Z,994.78
2019-03-17T10:55:39.714Z,994.79
2019-03-17T10:57:32.691Z,994.73
2019-03-17T10:58:32.747Z,994.76
2019-03-17T11:00:25.747Z,994.81
2019-03-17T11:01:25.785Z,994.81
2019-03-17T11:03:18.765Z,994.77
2019-03-17T11:04:18.838Z,994.85
2019-03-17T11:06:11.823Z,994.87
2019-03-17T11:07:11.861Z,994.83
2019-03-17T11:09:04.841Z,994.88
2019-03-17T11:10:04.901Z,994.88
2019-03-17T11:11:57.919Z,994.91
2019-03-17T11:12:57.943Z,994.97
2019-03-17T11:14:50.948Z,995.02
2019-03-17T11:15:51.007Z,994.94
2019-03-17T11:17:44.010Z,994.96
2019-03-17T11:18:44.049Z,994.95
2019-03-17T11:20:37.036Z,994.97
2019-03-17T11:21:37.095Z,994.94
2019-03-17T11:23:30.098Z,995.07
2019-03-17T11:24:30.139Z,995.08
2019-03-17T11:26:23.125Z,995.07
2019-03-17T11:27:23.177Z,995.09
2019-03-17T11:29:16.183Z,995.16
2019-03-17T11:30:16.228Z,995.17
2019-03-17T11:32:09.714Z,995.15
2019-03-17T11:33:09.768Z,995.20
2019-03-17T11:35:02.757Z,995.26
2019-03-17T11:36:02.810Z,995.28
2019-03-17T11:37:55.822Z,995.27
2019-03-17T11:38:55.844Z,995.32
2019-03-17T11:40:48.839Z,995.40
2019-03-17T11:41:48.881Z,995.30
2019-03-17T11:43:41.865Z,995.37
2019-03-17T11:44:41.922Z,995.36
2019-03-17T11:46:34.955Z,995.38
2019-03-17T11:47:34.961Z,995.40
2019-03-17T11:49:32.953Z,995.38
2019-03-17T11:50:33.018Z,995.35
2019-03-17T11:52:26.549Z,995.24
2019-03-17T11:53:26.559Z,995.25
2019-03-17T11:55:19.578Z,995.38
2019-03-17T11:56:19.600Z,995.36
2019-03-17T11:58:12.592Z,995.50
2019-03-17T11:59:12.629Z,995.56
2019-03-17T12:01:05.656Z,995.51
2019-03-17T12:02:05.673Z,995.53
2019-03-17T12:03:58.653Z,995.63
2019-03-17T12:04:58.706Z,995.63
2019-03-17T12:06:51.715Z,995.70
2019-03-17T12:07:51.758Z,995.74
2019-03-17T12:09:49.898Z,995.73
2019-03-17T12:10:44.789Z,995.75
2019-03-17T12:12:37.808Z,995.76
2019-03-17T12:13:37.825Z,995.75
2019-03-17T12:15:30.839Z,995.72
2019-03-17T12:16:30.874Z,995.72
2019-03-17T12:18:23.854Z,995.74
2019-03-17T12:19:23.969Z,995.75
2019-03-17T12:21:16.916Z,995.72
2019-03-17T12:22:16.950Z,995.79
2019-03-17T12:24:09.934Z,995.80
2019-03-17T12:25:11.575Z,995.80
2019-03-17T12:27:03.028Z,995.81
2019-03-17T12:28:03.055Z,995.92
2019-03-17T12:29:56.026Z,995.86
2019-03-17T12:30:56.082Z,995.85
2019-03-17T12:32:49.105Z,995.89
2019-03-17T12:33:49.119Z,995.89
2019-03-17T12:35:42.126Z,995.98
2019-03-17T12:36:42.189Z,995.90
2019-03-17T12:38:35.175Z,995.91
2019-03-17T12:39:35.222Z,995.92
2019-03-17T12:41:28.276Z,995.93
2019-03-17T12:42:28.243Z,995.94
2019-03-17T12:44:21.266Z,995.85
2019-03-17T12:45:21.289Z,995.89
2019-03-17T12:47:14.311Z,995.94
2019-03-17T12:48:14.328Z,995.91
2019-03-17T12:50:07.307Z,995.91
2019-03-17T12:51:07.365Z,995.88
2019-03-17T12:53:00.402Z,995.85
2019-03-17T12:54:00.408Z,995.84
2019-03-17T12:55:53.382Z,995.88
2019-03-17T12:56:53.436Z,995.86
2019-03-17T12:58:46.444Z,995.91
2019-03-17T12:59:46.473Z,995.90
2019-03-17T13:01:39.451Z,995.91
2019-03-17T13:02:39.507Z,995.87
2019-03-17T13:04:32.520Z,995.88
2019-03-17T13:05:32.548Z,995.91
2019-03-17T13:07:25.524Z,995.85
2019-03-17T13:08:25.697Z,995.93
2019-03-17T13:10:18.592Z,996.10
2019-03-17T13:11:18.616Z,996.30
2019-03-17T13:13:11.609Z,996.42
2019-03-17T13:14:11.673Z,996.56
2019-03-17T13:16:04.731Z,996.46
2019-03-17T13:17:04.699Z,996.44
2019-03-17T13:18:57.685Z,996.63
2019-03-17T13:19:57.733Z,996.66
2019-03-17T13:21:50.844Z,996.73
2019-03-17T13:22:50.810Z,996.74
2019-03-17T13:24:43.795Z,996.83
2019-03-17T13:25:43.804Z,996.79
2019-03-17T13:27:36.839Z,996.73
2019-03-17T13:28:36.873Z,996.72
2019-03-17T13:30:29.870Z,996.77
2019-03-17T13:31:29.923Z,996.71
2019-03-17T13:33:22.939Z,996.71
2019-03-17T13:34:22.947Z,996.69
2019-03-17T13:36:15.927Z,996.74
2019-03-17T13:37:15.975Z,996.79
2019-03-17T13:39:08.969Z,996.79
2019-03-17T13:40:09.127Z,996.77
2019-03-17T13:42:02.001Z,996.77
2019-03-17T13:43:02.057Z,996.83
2019-03-17T13:44:55.092Z,996.87
2019-03-17T13:45:55.112Z,996.90
2019-03-17T13:47:48.086Z,996.91
2019-03-17T13:48:48.131Z,996.95
2019-03-17T13:50:41.121Z,996.97
2019-03-17T13:51:41.159Z,996.99
2019-03-17T13:53:35.081Z,997.05
2019-03-17T13:54:35.045Z,997.11
2019-03-17T13:56:28.041Z,997.03
2019-03-17T13:57:28.083Z,997.05
2019-03-17T13:59:21.131Z,997.05
2019-03-17T14:00:21.343Z,997.02
2019-03-17T14:02:14.135Z,997.18
2019-03-17T14:03:14.170Z,997.15
2019-03-17T14:05:07.752Z,997.04
2019-03-17T14:06:07.776Z,997.15
2019-03-17T14:08:00.887Z,997.16
2019-03-17T14:09:00.947Z,997.11
2019-03-17T14:10:53.916Z,997.15
2019-03-17T14:11:53.971Z,997.17
2019-03-17T14:13:46.977Z,997.23
2019-03-17T14:14:47.118Z,997.26
2019-03-17T14:16:39.997Z,997.18
2019-03-17T14:17:40.055Z,997.24
2019-03-17T14:19:33.061Z,997.34
2019-03-17T14:20:33.090Z,997.18
2019-03-17T14:22:26.067Z,997.27
2019-03-17T14:23:26.125Z,997.29
2019-03-17T14:25:19.129Z,997.35
2019-03-17T14:26:19.164Z,997.32
2019-03-17T14:28:12.675Z,997.31
2019-03-17T14:29:12.702Z,997.41
2019-03-17T14:31:05.708Z,997.49
2019-03-17T14:32:05.754Z,997.47
2019-03-17T14:33:58.756Z,997.51
2019-03-17T14:34:58.800Z,997.54
2019-03-17T14:36:51.807Z,997.51
2019-03-17T14:37:51.845Z,997.57
2019-03-17T14:39:44.914Z,997.59
2019-03-17T14:40:53.145Z,997.67
2019-03-17T14:42:37.883Z,997.64
2019-03-17T14:43:37.934Z,997.62
2019-03-17T14:45:30.914Z,997.58
2019-03-17T14:46:30.967Z,997.53
2019-03-17T14:48:23.967Z,997.56
2019-03-17T14:49:24.024Z,997.55
2019-03-17T14:51:17.023Z,997.57
2019-03-17T14:52:17.071Z,997.57
2019-03-17T14:54:10.084Z,997.49
2019-03-17T14:55:10.104Z,997.53
2019-03-17T14:57:03.116Z,997.53
2019-03-17T14:58:03.143Z,997.49
2019-03-17T14:59:56.159Z,997.55
2019-03-17T15:00:56.215Z,997.58
2019-03-17T15:02:49.213Z,997.53
2019-03-17T15:03:49.249Z,997.60
2019-03-17T15:05:42.229Z,997.62
2019-03-17T15:06:42.288Z,997.65
2019-03-17T15:08:35.298Z,997.65
2019-03-17T15:09:35.346Z,997.70
2019-03-17T15:11:28.310Z,997.70
2019-03-17T15:12:28.366Z,997.67
2019-03-17T15:14:21.378Z,997.69
2019-03-17T15:15:21.409Z,997.63
2019-03-17T15:17:14.409Z,997.70
2019-03-17T15:18:14.455Z,997.68
2019-03-17T15:20:07.466Z,997.68
2019-03-17T15:21:07.496Z,997.67
2019-03-17T15:23:00.484Z,997.71
2019-03-17T15:24:00.536Z,997.76
2019-03-17T15:25:53.534Z,997.73
2019-03-17T15:26:53.573Z,997.73
2019-03-17T15:28:46.636Z,997.79
2019-03-17T15:29:46.615Z,997.77
2019-03-17T15:31:39.703Z,997.77
2019-03-17T15:32:39.660Z,997.83
2019-03-17T15:34:32.671Z,997.83
2019-03-17T15:35:32.702Z,997.84
2019-03-17T15:37:25.790Z,997.89
2019-03-17T15:38:25.762Z,997.89
2019-03-17T15:40:18.785Z,997.90
2019-03-17T15:41:19.115Z,997.91
2019-03-17T15:43:11.779Z,997.98
2019-03-17T15:44:11.818Z,997.91
2019-03-17T15:46:04.830Z,998.01
2019-03-17T15:47:04.860Z,997.96
2019-03-17T15:48:57.842Z,998.02
2019-03-17T15:49:57.899Z,998.05
2019-03-17T15:51:50.910Z,998.02
2019-03-17T15:52:50.934Z,998.06
2019-03-17T15:54:43.914Z,998.12
2019-03-17T15:55:43.978Z,998.16
2019-03-17T15:57:36.975Z,998.11
2019-03-17T15:58:37.021Z,998.13
2019-03-17T16:00:29.994Z,998.20
2019-03-17T16:01:30.050Z,998.21
2019-03-17T16:03:23.063Z,998.26
2019-03-17T16:04:23.084Z,998.24
2019-03-17T16:06:18.804Z,998.32
2019-03-17T16:07:16.143Z,998.30
2019-03-17T16:09:09.194Z,998.35
2019-03-17T16:10:09.222Z,998.31
2019-03-17T16:12:02.393Z,998.36
2019-03-17T16:13:02.263Z,998.37
2019-03-17T16:14:55.294Z,998.36
2019-03-17T16:15:55.333Z,998.38
2019-03-17T16:17:48.316Z,998.48
2019-03-17T16:18:48.599Z,998.49
2019-03-17T16:20:41.385Z,998.49
2019-03-17T16:21:41.405Z,998.48
2019-03-17T16:23:34.387Z,998.49
2019-03-17T16:24:34.467Z,998.50
2019-03-17T16:26:27.445Z,998.54
2019-03-17T16:27:27.490Z,998.57
2019-03-17T16:29:20.468Z,998.58
2019-03-17T16:30:20.522Z,998.65
2019-03-17T16:32:13.514Z,998.75
2019-03-17T16:33:13.556Z,998.63
2019-03-17T16:35:06.579Z,998.68
2019-03-17T16:36:06.607Z,998.70
2019-03-17T16:37:59.576Z,998.68
2019-03-17T16:38:59.633Z,998.68
2019-03-17T16:40:52.644Z,998.68
2019-03-17T16:41:52.671Z,998.71
2019-03-17T16:43:45.674Z,998.78
2019-03-17T16:44:46.042Z,998.75
2019-03-17T16:46:38.714Z,998.81
2019-03-17T16:47:38.746Z,998.81
2019-03-17T16:49:32.232Z,998.85
2019-03-17T16:50:32.356Z,998.86
2019-03-17T16:52:25.287Z,998.94
2019-03-17T16:53:25.377Z,998.85
2019-03-17T16:55:18.343Z,998.90
2019-03-17T16:56:18.369Z,998.93
2019-03-17T16:58:11.347Z,998.93
2019-03-17T16:59:11.404Z,998.88
2019-03-17T17:01:04.418Z,998.93
2019-03-17T17:02:04.453Z,999.01
2019-03-17T17:03:57.448Z,999.07
2019-03-17T17:04:57.512Z,999.03
2019-03-17T17:06:50.534Z,999.01
2019-03-17T17:07:50.542Z,999.04
2019-03-17T17:09:43.533Z,998.98
2019-03-17T17:10:49.918Z,999.06
2019-03-17T17:12:36.725Z,999.08
2019-03-17T17:13:36.615Z,999.14
2019-03-17T17:15:29.646Z,999.17
2019-03-17T17:16:29.817Z,999.16
2019-03-17T17:18:22.649Z,999.20
2019-03-17T17:19:22.686Z,999.21
2019-03-17T17:21:16.678Z,999.22
2019-03-17T17:22:16.739Z,999.22
2019-03-17T17:24:09.743Z,999.23
2019-03-17T17:25:09.771Z,999.23
2019-03-17T17:27:02.751Z,999.25
2019-03-17T17:28:02.828Z,999.26
2019-03-17T17:29:55.805Z,999.27
2019-03-17T17:30:55.840Z,999.31
2019-03-17T17:32:48.839Z,999.31
2019-03-17T17:33:48.874Z,999.33
2019-03-17T17:35:41.851Z,999.33
2019-03-17T17:36:41.919Z,999.39
2019-03-17T17:38:34.905Z,999.42
2019-03-17T17:39:34.981Z,999.45
2019-03-17T17:41:27.955Z,999.45
2019-03-17T17:42:27.993Z,999.50
2019-03-17T17:44:20.977Z,999.49
2019-03-17T17:45:21.042Z,999.49
2019-03-17T17:47:14.044Z,999.50
2019-03-17T17:48:14.065Z,999.52
2019-03-17T17:50:07.045Z,999.52
2019-03-17T17:51:07.102Z,999.60
2019-03-17T17:53:00.133Z,999.58
2019-03-17T17:54:00.131Z,999.62
2019-03-17T17:55:53.118Z,999.67
2019-03-17T17:56:53.166Z,999.75
2019-03-17T17:58:46.170Z,999.80
2019-03-17T17:59:46.196Z,999.84
2019-03-17T18:01:39.174Z,999.85
2019-03-17T18:02:39.230Z,999.84
2019-03-17T18:04:32.226Z,999.92
2019-03-17T18:05:32.259Z,999.94
2019-03-17T18:07:25.253Z,999.95
2019-03-17T18:08:25.323Z,1000.01
2019-03-17T18:10:18.319Z,1000.02
2019-03-17T18:11:18.341Z,1000.00
2019-03-17T18:13:11.321Z,1000.04
2019-03-17T18:14:11.373Z,1000.08
2019-03-17T18:16:04.906Z,1000.08
2019-03-17T18:17:04.934Z,1000.12
2019-03-17T18:18:57.902Z,1000.09
2019-03-17T18:19:57.959Z,1000.08
2019-03-17T18:21:50.964Z,1000.15
2019-03-17T18:22:51.010Z,1000.15
2019-03-17T18:24:44.036Z,1000.14
2019-03-17T18:25:44.085Z,1000.11
2019-03-17T18:27:37.161Z,1000.13